Time;durP1;ratioP1;P1;durP2;ratioP2;P2;SDS_P1;SDS_P2;PMS_P1;PMS_P2;Temp;Humidity;BMP_temperature;BMP_pressure;BME280_temperature;BME280_humidity;BME280_pressure;Samples;Min_cycle;Max_cycle;Signal;HPM_P1;HPM_P2
2021/12/18 00:00:02;;;;;;;27.50;13.23;;;;;;;;;;4899591;29;20048;-90
2021/12/18 00:02:34;;;;;;;28.13;13.30;;;;;;;;;;4898309;29;20087;-89
2021/12/18 00:05:00;;;;;;;33.55;14.48;;;;;;;;;;4915559;29;20062;-89
2021/12/18 00:07:28;;;;;;;30.17;15.35;;;;;;;;;;4928027;29;20673;-89
2021/12/18 00:09:55;;;;;;;27.55;13.73;;;;;;;;;;4933758;29;20058;-89
2021/12/18 00:12:22;;;;;;;28.80;14.10;;;;;;;;;;4932241;29;20059;-89
2021/12/18 00:14:51;;;;;;;33.30;14.20;;;;;;;;;;4916422;29;20096;-88
2021/12/18 00:17:18;;;;;;;32.60;15.98;;;;;;;;;;4914265;29;20055;-89
2021/12/18 00:19:48;;;;;;;25.80;14.18;;;;;;;;;;4924072;29;20385;-89
2021/12/18 00:22:15;;;;;;;25.70;12.00;;;;;;;;;;4929598;29;20571;-90
2021/12/18 00:24:43;;;;;;;28.50;12.95;;;;;;;;;;4931634;29;20099;-89
2021/12/18 00:27:11;;;;;;;27.77;12.77;;;;;;;;;;4903384;29;20505;-90
2021/12/18 00:29:38;;;;;;;27.15;14.25;;;;;;;;;;4894189;29;20048;-89
2021/12/18 00:32:06;;;;;;;30.40;14.55;;;;;;;;;;4913956;29;20404;-89
2021/12/18 00:34:34;;;;;;;30.05;13.98;;;;;;;;;;4897519;29;20044;-89
2021/12/18 00:37:03;;;;;;;32.63;15.43;;;;;;;;;;4911949;29;20102;-89
2021/12/18 00:39:32;;;;;;;29.67;13.55;;;;;;;;;;4905081;29;20087;-89
2021/12/18 00:42:18;;;;;;;31.25;13.85;;;;;;;;;;4892722;29;20072;-89
2021/12/18 00:44:46;;;;;;;32.77;15.57;;;;;;;;;;4913800;29;20071;-89
2021/12/18 00:47:13;;;;;;;27.77;14.65;;;;;;;;;;4895599;29;20052;-90
2021/12/18 00:49:40;;;;;;;30.10;16.17;;;;;;;;;;4892662;29;20575;-89
2021/12/18 00:52:11;;;;;;;30.63;15.25;;;;;;;;;;4865890;29;20135;-89
2021/12/18 00:54:39;;;;;;;32.60;16.23;;;;;;;;;;4981573;28;20046;-89
2021/12/18 00:57:07;;;;;;;32.20;16.27;;;;;;;;;;5008967;28;20745;-89
2021/12/18 00:59:35;;;;;;;32.78;16.80;;;;;;;;;;5003655;28;20445;-90
2021/12/18 01:02:02;;;;;;;33.70;16.65;;;;;;;;;;4989018;28;20109;-89
2021/12/18 01:04:30;;;;;;;34.65;18.20;;;;;;;;;;5002609;28;20079;-90
2021/12/18 01:06:57;;;;;;;34.90;16.92;;;;;;;;;;4989271;28;20046;-89
2021/12/18 01:09:44;;;;;;;35.67;17.95;;;;;;;;;;4987118;28;20061;-89
2021/12/18 01:12:12;;;;;;;37.97;18.27;;;;;;;;;;5006237;28;20073;-89
2021/12/18 01:14:53;;;;;;;35.85;18.48;;;;;;;;;;5007619;28;20053;-89
2021/12/18 01:22:50;;;;;;;38.40;19.13;;;;;;;;;;5005148;28;20421;-89
2021/12/18 01:25:21;;;;;;;39.33;19.60;;;;;;;;;;5002361;28;20108;-89
2021/12/18 01:27:49;;;;;;;36.03;19.02;;;;;;;;;;5023365;28;20061;-89
2021/12/18 01:30:19;;;;;;;37.38;18.33;;;;;;;;;;5010075;28;20045;-89
2021/12/18 01:32:47;;;;;;;34.50;17.00;;;;;;;;;;5024705;28;20115;-89
2021/12/18 01:35:14;;;;;;;36.08;18.23;;;;;;;;;;5022203;28;20096;-89
2021/12/18 01:37:42;;;;;;;37.35;19.25;;;;;;;;;;4997837;28;20558;-89
2021/12/18 01:40:12;;;;;;;34.42;18.65;;;;;;;;;;4995759;28;20144;-89
2021/12/18 01:45:51;;;;;;;39.67;18.60;;;;;;;;;;5018842;28;20073;-89
2021/12/18 01:51:32;;;;;;;30.60;15.85;;;;;;;;;;5011771;28;20200;-89
2021/12/18 01:53:59;;;;;;;37.95;17.98;;;;;;;;;;5010164;28;20489;-89
2021/12/18 01:56:28;;;;;;;34.42;17.70;;;;;;;;;;5024127;28;20104;-90
2021/12/18 01:58:58;;;;;;;33.20;16.75;;;;;;;;;;4985086;28;20134;-89
2021/12/18 02:01:27;;;;;;;35.55;18.15;;;;;;;;;;5020803;28;20050;-90
2021/12/18 02:03:54;;;;;;;45.42;17.83;;;;;;;;;;4987778;28;20505;-89
2021/12/18 02:06:22;;;;;;;35.05;17.33;;;;;;;;;;5005869;28;20042;-89
2021/12/18 02:08:51;;;;;;;37.03;17.60;;;;;;;;;;5004745;28;20054;-88
2021/12/18 02:11:28;;;;;;;33.72;16.25;;;;;;;;;;5026147;28;20041;-88
2021/12/18 02:14:22;;;;;;;33.00;15.82;;;;;;;;;;5006510;28;20148;-90
2021/12/18 02:19:49;;;;;;;39.60;17.65;;;;;;;;;;5026024;28;20052;-89
2021/12/18 02:22:22;;;;;;;36.10;16.83;;;;;;;;;;5010564;28;20048;-90
2021/12/18 02:24:50;;;;;;;37.40;17.17;;;;;;;;;;5007052;28;20107;-90
2021/12/18 02:27:25;;;;;;;38.28;15.93;;;;;;;;;;5008758;28;20748;-90
2021/12/18 02:29:52;;;;;;;39.15;17.90;;;;;;;;;;5025791;28;20045;-89
2021/12/18 02:32:21;;;;;;;39.85;17.58;;;;;;;;;;5019013;28;20054;-89
2021/12/18 02:34:54;;;;;;;37.42;16.25;;;;;;;;;;5008419;28;20049;-89
2021/12/18 02:37:32;;;;;;;37.83;17.83;;;;;;;;;;5006838;28;20045;-89
2021/12/18 02:42:39;;;;;;;38.95;16.77;;;;;;;;;;5021352;28;20107;-90
2021/12/18 02:45:09;;;;;;;41.60;17.83;;;;;;;;;;5025536;28;20050;-90
2021/12/18 02:47:37;;;;;;;33.83;15.40;;;;;;;;;;5025834;28;20045;-90
2021/12/18 02:50:05;;;;;;;38.88;17.38;;;;;;;;;;5009153;28;20049;-89
2021/12/18 02:52:37;;;;;;;36.13;16.10;;;;;;;;;;5007980;28;20072;-89
2021/12/18 02:55:05;;;;;;;37.20;17.40;;;;;;;;;;5013571;28;20052;-89
2021/12/18 02:57:33;;;;;;;40.15;16.38;;;;;;;;;;5008994;28;20053;-89
2021/12/18 03:00:00;;;;;;;40.00;17.42;;;;;;;;;;4995493;28;20064;-89
2021/12/18 03:02:33;;;;;;;36.17;15.75;;;;;;;;;;5013081;28;20060;-89
2021/12/18 03:05:06;;;;;;;38.28;17.45;;;;;;;;;;4990745;28;20132;-90
2021/12/18 03:07:37;;;;;;;40.42;16.67;;;;;;;;;;4993291;28;20158;-89
2021/12/18 03:23:57;;;;;;;37.05;16.58;;;;;;;;;;5009062;28;20048;-89
2021/12/18 03:26:32;;;;;;;39.88;16.45;;;;;;;;;;5006559;28;20207;-89
2021/12/18 03:29:06;;;;;;;37.03;16.10;;;;;;;;;;5029439;28;20042;-89
2021/12/18 03:31:34;;;;;;;39.83;15.27;;;;;;;;;;5002713;28;20045;-90
2021/12/18 03:34:01;;;;;;;37.15;14.48;;;;;;;;;;4993692;28;20180;-89
2021/12/18 03:36:28;;;;;;;29.45;13.23;;;;;;;;;;5010183;28;20483;-89
2021/12/18 03:39:00;;;;;;;35.25;14.80;;;;;;;;;;5028082;28;20049;-88
2021/12/18 03:41:27;;;;;;;34.42;14.20;;;;;;;;;;5011632;28;20048;-88
2021/12/18 03:43:54;;;;;;;37.70;14.07;;;;;;;;;;5010693;28;20563;-88
2021/12/18 03:46:22;;;;;;;29.90;12.75;;;;;;;;;;5010278;28;20049;-88
2021/12/18 03:48:50;;;;;;;33.03;12.30;;;;;;;;;;5018559;28;20103;-88
2021/12/18 03:51:19;;;;;;;35.63;14.63;;;;;;;;;;5010879;28;20041;-89
2021/12/18 03:53:46;;;;;;;43.35;14.80;;;;;;;;;;5011048;28;20038;-88
2021/12/18 03:56:20;;;;;;;39.38;15.18;;;;;;;;;;5008582;28;20772;-89
2021/12/18 03:58:48;;;;;;;38.00;15.75;;;;;;;;;;5024311;28;20077;-89
2021/12/18 04:01:15;;;;;;;39.33;15.65;;;;;;;;;;5013004;28;20641;-88
2021/12/18 04:03:43;;;;;;;37.95;15.05;;;;;;;;;;5011488;28;20456;-89
2021/12/18 04:06:12;;;;;;;35.08;13.77;;;;;;;;;;5025946;28;20134;-88
2021/12/18 04:08:39;;;;;;;35.30;14.27;;;;;;;;;;5009513;28;20409;-89
2021/12/18 04:11:07;;;;;;;35.00;14.77;;;;;;;;;;5011538;28;20658;-89
2021/12/18 04:13:37;;;;;;;37.45;14.65;;;;;;;;;;5008370;28;20054;-89
2021/12/18 04:16:04;;;;;;;41.05;15.82;;;;;;;;;;5008640;28;20701;-88
2021/12/18 04:18:32;;;;;;;29.80;13.43;;;;;;;;;;5022792;28;20100;-88
2021/12/18 04:21:01;;;;;;;31.67;12.27;;;;;;;;;;5007096;28;20568;-89
2021/12/18 04:23:29;;;;;;;29.80;11.75;;;;;;;;;;5004698;28;20100;-89
2021/12/18 04:25:56;;;;;;;29.50;11.77;;;;;;;;;;5013765;28;20107;-89
2021/12/18 04:28:24;;;;;;;30.85;12.30;;;;;;;;;;5024858;28;20061;-89
2021/12/18 04:30:55;;;;;;;28.77;12.45;;;;;;;;;;5026538;28;20138;-89
2021/12/18 04:33:23;;;;;;;33.38;11.40;;;;;;;;;;5016054;28;20046;-89
2021/12/18 04:35:51;;;;;;;36.00;13.82;;;;;;;;;;4978306;28;20409;-90
2021/12/18 04:38:18;;;;;;;34.03;14.63;;;;;;;;;;5024970;28;20896;-90
2021/12/18 04:40:46;;;;;;;28.17;12.07;;;;;;;;;;5005843;28;20123;-90
2021/12/18 04:43:12;;;;;;;30.15;11.80;;;;;;;;;;5022598;28;20042;-89
2021/12/18 04:45:40;;;;;;;34.50;12.52;;;;;;;;;;5024995;28;20088;-89
2021/12/18 04:48:10;;;;;;;30.58;12.50;;;;;;;;;;5010043;28;20056;-89
2021/12/18 04:50:40;;;;;;;30.35;12.55;;;;;;;;;;5004766;28;20516;-89
2021/12/18 04:53:09;;;;;;;31.85;12.52;;;;;;;;;;5022848;28;20046;-90
2021/12/18 04:55:37;;;;;;;28.67;11.48;;;;;;;;;;5003651;28;20060;-90
2021/12/18 04:58:05;;;;;;;28.02;12.25;;;;;;;;;;5028178;28;20054;-90
2021/12/18 05:00:38;;;;;;;34.90;12.68;;;;;;;;;;5026459;28;20131;-90
2021/12/18 05:03:07;;;;;;;27.45;11.20;;;;;;;;;;4990835;28;20045;-90
2021/12/18 05:05:38;;;;;;;26.38;11.63;;;;;;;;;;4991047;28;20057;-90
2021/12/18 05:08:06;;;;;;;28.67;11.75;;;;;;;;;;5028878;28;20037;-90
2021/12/18 05:10:34;;;;;;;25.77;10.07;;;;;;;;;;5023336;28;20045;-90
2021/12/18 05:13:01;;;;;;;27.20;11.30;;;;;;;;;;5012208;28;20119;-89
2021/12/18 05:15:28;;;;;;;27.55;11.82;;;;;;;;;;5008837;28;20077;-90
2021/12/18 05:17:55;;;;;;;26.13;11.13;;;;;;;;;;5010289;28;20079;-90
2021/12/18 05:20:23;;;;;;;28.35;11.57;;;;;;;;;;5018335;28;20497;-89
2021/12/18 05:22:55;;;;;;;27.25;10.43;;;;;;;;;;5011736;28;20046;-90
2021/12/18 05:25:23;;;;;;;27.95;11.85;;;;;;;;;;5017245;28;20547;-90
2021/12/18 05:27:51;;;;;;;30.42;13.07;;;;;;;;;;4993699;28;20707;-88
2021/12/18 05:30:20;;;;;;;29.67;12.45;;;;;;;;;;5021660;28;20045;-89
2021/12/18 05:32:47;;;;;;;24.42;10.25;;;;;;;;;;5010869;28;20049;-90
2021/12/18 05:35:16;;;;;;;29.48;11.70;;;;;;;;;;5013279;28;20108;-89
2021/12/18 05:37:50;;;;;;;27.25;11.40;;;;;;;;;;5003448;28;20054;-90
2021/12/18 05:40:21;;;;;;;32.55;12.13;;;;;;;;;;5003156;28;20102;-90
2021/12/18 05:42:51;;;;;;;28.48;12.88;;;;;;;;;;5024973;28;20045;-89
2021/12/18 05:45:19;;;;;;;32.67;12.27;;;;;;;;;;5006396;28;20080;-89
2021/12/18 05:47:46;;;;;;;31.95;12.40;;;;;;;;;;5021934;28;20049;-89
2021/12/18 05:50:16;;;;;;;38.28;15.57;;;;;;;;;;5004665;28;20045;-89
2021/12/18 05:52:44;;;;;;;33.17;12.88;;;;;;;;;;5021877;28;20077;-89
2021/12/18 05:55:12;;;;;;;40.47;14.27;;;;;;;;;;5022865;28;20129;-89
2021/12/18 05:57:41;;;;;;;34.63;13.80;;;;;;;;;;4999678;28;20585;-89
2021/12/18 06:00:10;;;;;;;38.15;13.77;;;;;;;;;;5001274;28;20046;-89
2021/12/18 06:02:37;;;;;;;40.90;13.98;;;;;;;;;;5019864;28;20531;-90
2021/12/18 06:05:07;;;;;;;32.40;12.73;;;;;;;;;;5025137;28;20041;-89
2021/12/18 06:07:43;;;;;;;32.95;14.57;;;;;;;;;;5023847;28;20045;-89
2021/12/18 06:10:11;;;;;;;26.58;12.32;;;;;;;;;;5010186;28;20099;-89
2021/12/18 06:12:40;;;;;;;26.00;10.90;;;;;;;;;;5026966;28;20509;-89
2021/12/18 06:15:09;;;;;;;27.63;11.73;;;;;;;;;;4995399;28;20045;-89
2021/12/18 06:17:36;;;;;;;21.13;9.50;;;;;;;;;;4996386;28;20045;-89
2021/12/18 06:20:04;;;;;;;26.42;10.52;;;;;;;;;;5012823;28;20077;-89
2021/12/18 06:22:31;;;;;;;24.55;9.30;;;;;;;;;;5005789;28;20111;-89
2021/12/18 06:24:59;;;;;;;21.42;8.98;;;;;;;;;;5012732;28;20054;-89
2021/12/18 06:27:26;;;;;;;29.67;11.40;;;;;;;;;;5009119;28;20053;-89
2021/12/18 06:29:58;;;;;;;23.48;9.02;;;;;;;;;;5003912;28;20053;-90
2021/12/18 06:32:25;;;;;;;26.20;9.68;;;;;;;;;;5020585;28;20706;-90
2021/12/18 06:34:52;;;;;;;20.65;9.40;;;;;;;;;;5008333;28;20132;-90
2021/12/18 06:37:19;;;;;;;28.92;10.88;;;;;;;;;;5022808;28;20432;-90
2021/12/18 06:39:47;;;;;;;24.58;10.40;;;;;;;;;;5002417;28;20140;-90
2021/12/18 06:42:14;;;;;;;25.17;9.88;;;;;;;;;;5005382;28;20039;-89
2021/12/18 06:44:42;;;;;;;27.85;9.98;;;;;;;;;;5004411;28;20490;-90
2021/12/18 06:47:14;;;;;;;26.80;11.18;;;;;;;;;;5005809;28;20053;-90
2021/12/18 06:49:41;;;;;;;29.92;10.52;;;;;;;;;;5018920;28;20137;-90
2021/12/18 06:52:09;;;;;;;23.63;9.20;;;;;;;;;;4999478;28;20688;-90
2021/12/18 06:54:36;;;;;;;26.55;10.70;;;;;;;;;;5006568;28;20058;-89
2021/12/18 06:57:03;;;;;;;27.67;10.70;;;;;;;;;;5015314;28;20710;-89
2021/12/18 06:59:31;;;;;;;25.50;9.57;;;;;;;;;;5018395;28;20608;-89
2021/12/18 07:01:59;;;;;;;23.95;9.60;;;;;;;;;;5001192;28;20050;-89
2021/12/18 07:04:28;;;;;;;26.75;10.00;;;;;;;;;;5002525;28;20541;-89
2021/12/18 07:06:56;;;;;;;28.00;9.52;;;;;;;;;;4983555;28;20610;-89
2021/12/18 07:09:25;;;;;;;24.08;10.20;;;;;;;;;;5015045;28;20045;-89
2021/12/18 07:11:52;;;;;;;23.05;8.68;;;;;;;;;;5015143;28;20054;-89
2021/12/18 07:14:20;;;;;;;22.02;9.18;;;;;;;;;;5007551;28;20081;-89
2021/12/18 07:16:47;;;;;;;24.75;9.93;;;;;;;;;;4991475;28;20081;-89
2021/12/18 07:19:14;;;;;;;21.30;9.43;;;;;;;;;;4998073;28;20065;-90
2021/12/18 07:21:45;;;;;;;25.52;10.13;;;;;;;;;;5014730;28;20041;-89
2021/12/18 07:24:12;;;;;;;21.30;9.00;;;;;;;;;;4978538;28;20046;-89
2021/12/18 07:26:40;;;;;;;20.38;8.10;;;;;;;;;;4995895;28;20049;-89
2021/12/18 07:29:08;;;;;;;19.63;8.30;;;;;;;;;;5029878;28;20100;-88
2021/12/18 07:31:36;;;;;;;19.42;7.72;;;;;;;;;;5009590;28;20124;-89
2021/12/18 07:34:04;;;;;;;20.60;8.23;;;;;;;;;;5010326;28;20485;-90
2021/12/18 07:36:33;;;;;;;21.63;8.48;;;;;;;;;;5003938;28;20068;-90
2021/12/18 07:39:03;;;;;;;19.25;8.30;;;;;;;;;;5003734;28;20046;-90
2021/12/18 07:41:30;;;;;;;22.38;8.60;;;;;;;;;;5024257;28;20099;-90
2021/12/18 07:43:57;;;;;;;25.52;9.52;;;;;;;;;;5006148;28;20050;-89
2021/12/18 07:46:25;;;;;;;22.42;9.15;;;;;;;;;;5024224;28;20081;-89
2021/12/18 07:48:52;;;;;;;24.08;9.07;;;;;;;;;;4989772;28;20059;-89
2021/12/18 07:51:19;;;;;;;31.85;9.82;;;;;;;;;;5022224;28;20073;-90
2021/12/18 07:53:47;;;;;;;22.02;8.48;;;;;;;;;;5007590;28;20134;-90
2021/12/18 07:56:19;;;;;;;20.45;8.13;;;;;;;;;;5024247;28;20138;-89
2021/12/18 07:58:47;;;;;;;27.30;11.18;;;;;;;;;;5022791;28;20046;-90
2021/12/18 08:01:14;;;;;;;20.55;9.23;;;;;;;;;;4995032;28;20613;-90
2021/12/18 08:03:42;;;;;;;20.30;7.72;;;;;;;;;;5026264;28;20107;-89
2021/12/18 08:06:10;;;;;;;21.45;7.88;;;;;;;;;;5022614;28;20053;-89
2021/12/18 08:08:37;;;;;;;21.75;8.57;;;;;;;;;;5025346;28;20096;-89
2021/12/18 08:11:05;;;;;;;23.98;9.93;;;;;;;;;;5006850;28;20525;-89
2021/12/18 08:13:37;;;;;;;22.42;9.43;;;;;;;;;;5007075;28;20471;-90
2021/12/18 08:16:05;;;;;;;20.45;7.85;;;;;;;;;;5005065;28;20112;-89
2021/12/18 08:18:38;;;;;;;21.33;8.55;;;;;;;;;;5012478;28;20456;-89
2021/12/18 08:21:06;;;;;;;21.30;8.55;;;;;;;;;;4970912;28;20120;-89
2021/12/18 08:23:33;;;;;;;24.80;9.27;;;;;;;;;;5005308;28;20073;-89
2021/12/18 08:26:00;;;;;;;19.52;8.27;;;;;;;;;;5019927;28;20605;-89
2021/12/18 08:28:27;;;;;;;24.75;9.85;;;;;;;;;;5004583;28;20191;-90
2021/12/18 08:30:59;;;;;;;23.90;10.43;;;;;;;;;;5009981;28;20058;-89
2021/12/18 08:33:26;;;;;;;17.60;9.25;;;;;;;;;;5005066;28;20076;-89
2021/12/18 08:35:54;;;;;;;23.17;9.85;;;;;;;;;;5004762;28;20042;-89
2021/12/18 08:38:21;;;;;;;20.08;7.60;;;;;;;;;;5023303;28;20849;-89
2021/12/18 08:40:50;;;;;;;21.50;8.57;;;;;;;;;;4996946;28;20658;-89
2021/12/18 08:43:18;;;;;;;24.17;8.75;;;;;;;;;;5024576;28;20602;-89
2021/12/18 08:45:46;;;;;;;22.05;9.13;;;;;;;;;;5005797;28;20055;-89
2021/12/18 08:48:15;;;;;;;23.63;9.27;;;;;;;;;;5023064;28;20730;-90
2021/12/18 08:50:43;;;;;;;23.65;9.23;;;;;;;;;;5010356;28;20091;-89
2021/12/18 08:53:10;;;;;;;21.10;7.53;;;;;;;;;;5019402;28;20050;-89
2021/12/18 08:55:37;;;;;;;20.77;9.30;;;;;;;;;;5010513;28;20045;-89
2021/12/18 08:58:05;;;;;;;21.98;9.35;;;;;;;;;;4993686;28;20636;-89
2021/12/18 09:00:33;;;;;;;22.25;8.48;;;;;;;;;;4991849;28;20053;-89
2021/12/18 09:03:04;;;;;;;23.38;7.88;;;;;;;;;;5031540;28;20369;-90
2021/12/18 09:05:34;;;;;;;21.63;9.10;;;;;;;;;;4995510;28;20074;-90
2021/12/18 09:08:01;;;;;;;23.55;8.65;;;;;;;;;;5022645;28;20111;-90
2021/12/18 09:10:31;;;;;;;20.10;8.98;;;;;;;;;;5023466;28;20474;-89
2021/12/18 09:12:58;;;;;;;28.90;10.30;;;;;;;;;;4992376;28;20098;-88
2021/12/18 09:15:26;;;;;;;22.80;9.23;;;;;;;;;;5009036;28;20331;-89
2021/12/18 09:17:53;;;;;;;23.20;9.57;;;;;;;;;;5012996;28;20120;-88
2021/12/18 09:20:21;;;;;;;26.20;10.23;;;;;;;;;;5007739;28;20107;-89
2021/12/18 09:22:51;;;;;;;22.77;8.90;;;;;;;;;;5020151;28;20065;-89
2021/12/18 09:25:18;;;;;;;30.80;9.70;;;;;;;;;;5005033;28;20084;-88
2021/12/18 09:27:45;;;;;;;22.67;8.68;;;;;;;;;;5022556;28;20054;-89
2021/12/18 09:30:15;;;;;;;33.60;8.82;;;;;;;;;;5002342;28;20120;-90
2021/12/18 09:32:42;;;;;;;25.73;8.77;;;;;;;;;;5006897;28;20076;-90
2021/12/18 09:35:12;;;;;;;20.85;9.07;;;;;;;;;;5021714;28;20057;-90
2021/12/18 09:37:40;;;;;;;25.48;9.82;;;;;;;;;;5005628;28;20046;-91
2021/12/18 09:40:19;;;;;;;22.30;9.13;;;;;;;;;;5018692;28;20111;-90
2021/12/18 09:42:48;;;;;;;23.02;9.88;;;;;;;;;;5025785;28;20084;-90
2021/12/18 09:45:16;;;;;;;24.67;9.40;;;;;;;;;;5026003;28;20052;-90
2021/12/18 09:47:45;;;;;;;24.25;9.57;;;;;;;;;;5011181;28;20053;-90
2021/12/18 09:50:16;;;;;;;24.83;11.15;;;;;;;;;;5021266;28;20080;-90
2021/12/18 09:52:44;;;;;;;20.83;9.98;;;;;;;;;;4982672;28;20100;-90
2021/12/18 09:55:17;;;;;;;19.15;8.70;;;;;;;;;;4999689;28;20091;-90
2021/12/18 09:58:03;;;;;;;24.55;8.98;;;;;;;;;;5016519;28;20077;-90
2021/12/18 10:00:31;;;;;;;22.52;8.98;;;;;;;;;;5007033;28;20344;-90
2021/12/18 10:02:59;;;;;;;23.15;10.13;;;;;;;;;;5025413;28;20046;-90
2021/12/18 10:05:27;;;;;;;30.00;11.77;;;;;;;;;;5021630;28;20056;-91
2021/12/18 10:08:14;;;;;;;27.75;12.02;;;;;;;;;;5007610;28;20103;-90
2021/12/18 10:11:02;;;;;;;25.50;9.57;;;;;;;;;;5006169;28;20101;-90
2021/12/18 10:13:29;;;;;;;31.35;12.05;;;;;;;;;;5023783;28;20104;-91
2021/12/18 10:16:11;;;;;;;30.00;9.70;;;;;;;;;;5022919;28;20049;-89
2021/12/18 10:18:38;;;;;;;35.35;9.95;;;;;;;;;;5005483;28;20045;-90
2021/12/18 10:21:19;;;;;;;21.92;10.00;;;;;;;;;;5023905;28;20045;-90
2021/12/18 10:23:52;;;;;;;20.30;9.20;;;;;;;;;;4992799;28;20077;-90
2021/12/18 10:26:38;;;;;;;21.80;9.20;;;;;;;;;;5007755;28;20134;-88
2021/12/18 10:29:07;;;;;;;18.30;7.60;;;;;;;;;;5000037;28;20058;-91
2021/12/18 10:31:46;;;;;;;19.08;7.22;;;;;;;;;;5026217;28;20115;-91
2021/12/18 10:34:24;;;;;;;20.58;7.97;;;;;;;;;;5025617;28;20053;-90
2021/12/18 10:37:11;;;;;;;22.40;9.18;;;;;;;;;;5005245;28;20505;-90
2021/12/18 10:39:44;;;;;;;14.15;6.40;;;;;;;;;;5020677;28;20498;-90
2021/12/18 10:42:33;;;;;;;16.88;7.18;;;;;;;;;;5022127;28;20138;-90
2021/12/18 10:45:18;;;;;;;17.95;6.97;;;;;;;;;;5023488;28;20050;-91
2021/12/18 10:48:09;;;;;;;18.05;7.40;;;;;;;;;;5013741;28;20421;-90
2021/12/18 10:50:41;;;;;;;24.25;7.95;;;;;;;;;;5022685;28;20083;-90
2021/12/18 10:53:12;;;;;;;19.15;7.57;;;;;;;;;;5022980;28;20123;-90
2021/12/18 10:55:41;;;;;;;21.20;9.10;;;;;;;;;;5006335;28;20049;-91
2021/12/18 10:58:21;;;;;;;21.27;7.88;;;;;;;;;;5004916;28;20045;-90
2021/12/18 11:00:55;;;;;;;25.63;12.77;;;;;;;;;;5003800;28;20041;-90
2021/12/18 11:03:38;;;;;;;26.35;10.10;;;;;;;;;;4991066;28;20116;-90
2021/12/18 11:06:14;;;;;;;34.00;15.77;;;;;;;;;;5009189;28;20050;-90
2021/12/18 11:09:04;;;;;;;26.17;11.05;;;;;;;;;;5008429;28;20540;-90
2021/12/18 11:14:25;;;;;;;23.42;9.60;;;;;;;;;;5009540;28;20123;-90
2021/12/18 11:16:54;;;;;;;22.10;8.48;;;;;;;;;;5025693;28;20128;-91
2021/12/18 11:19:29;;;;;;;24.02;9.90;;;;;;;;;;5007954;28;20050;-90
2021/12/18 11:22:00;;;;;;;24.67;10.50;;;;;;;;;;5025357;28;20049;-91
2021/12/18 11:24:32;;;;;;;27.52;12.32;;;;;;;;;;5013340;28;20064;-90
2021/12/18 11:27:01;;;;;;;22.40;9.73;;;;;;;;;;5022149;28;20042;-89
2021/12/18 11:29:45;;;;;;;;;;;;;;;;;;;;;
2021/12/18 11:32:15;;;;;;;21.73;8.35;;;;;;;;;;5025635;28;20054;-90
2021/12/18 11:34:44;;;;;;;26.15;10.38;;;;;;;;;;5007680;28;20054;-90
2021/12/18 11:37:13;;;;;;;23.15;10.80;;;;;;;;;;5022564;28;20041;-90
2021/12/18 11:39:44;;;;;;;25.85;11.02;;;;;;;;;;5023975;28;20785;-90
2021/12/18 11:42:12;;;;;;;25.27;10.23;;;;;;;;;;5010240;28;20061;-90
2021/12/18 11:44:43;;;;;;;23.38;9.57;;;;;;;;;;5023468;28;20088;-90
2021/12/18 11:47:33;;;;;;;21.55;9.38;;;;;;;;;;5011530;28;20128;-90
2021/12/18 11:50:05;;;;;;;27.25;10.25;;;;;;;;;;5023380;28;20038;-90
2021/12/18 11:52:54;;;;;;;24.20;9.98;;;;;;;;;;5011114;28;20148;-90
2021/12/18 11:55:22;;;;;;;25.38;8.85;;;;;;;;;;5012171;28;20048;-90
2021/12/18 11:57:50;;;;;;;26.35;10.57;;;;;;;;;;5007256;28;20058;-90
2021/12/18 12:00:43;;;;;;;23.58;9.07;;;;;;;;;;5007357;28;20402;-90
2021/12/18 12:03:12;;;;;;;24.63;10.00;;;;;;;;;;5009336;28;20054;-90
2021/12/18 12:05:50;;;;;;;24.90;9.98;;;;;;;;;;5005771;28;20449;-89
2021/12/18 12:08:39;;;;;;;24.15;10.48;;;;;;;;;;5025551;28;20386;-89
2021/12/18 12:11:16;;;;;;;28.05;10.63;;;;;;;;;;5008611;28;20044;-90
2021/12/18 12:14:19;;;;;;;26.67;10.60;;;;;;;;;;5009693;28;20076;-90
2021/12/18 12:17:29;;;;;;;28.00;12.60;;;;;;;;;;5023534;28;20049;-90
2021/12/18 12:20:00;;;;;;;27.27;12.25;;;;;;;;;;5008751;28;20062;-89
2021/12/18 12:22:53;;;;;;;30.52;12.23;;;;;;;;;;5025450;28;20054;-89
2021/12/18 12:25:44;;;;;;;32.85;13.55;;;;;;;;;;5020944;28;20038;-89
2021/12/18 12:28:25;;;;;;;33.45;11.90;;;;;;;;;;5006441;28;20054;-89
2021/12/18 12:31:12;;;;;;;28.58;12.65;;;;;;;;;;5025212;28;20496;-89
2021/12/18 12:33:43;;;;;;;31.30;13.18;;;;;;;;;;5024413;28;20057;-89
2021/12/18 12:36:13;;;;;;;34.28;14.65;;;;;;;;;;5006974;28;20049;-90
2021/12/18 12:42:10;;;;;;;35.95;14.75;;;;;;;;;;4917238;28;20078;-90
2021/12/18 12:44:48;;;;;;;34.67;14.77;;;;;;;;;;5008600;28;20120;-89
2021/12/18 12:47:24;;;;;;;31.38;14.35;;;;;;;;;;5021289;28;20156;-89
2021/12/18 12:49:56;;;;;;;37.28;15.10;;;;;;;;;;5024348;28;20056;-89
2021/12/18 12:52:25;;;;;;;31.40;14.73;;;;;;;;;;5011479;28;20041;-90
2021/12/18 12:55:15;;;;;;;34.72;14.75;;;;;;;;;;4979175;28;20441;-90
2021/12/18 12:57:55;;;;;;;38.03;15.65;;;;;;;;;;5020542;28;20586;-89
2021/12/18 13:00:50;;;;;;;39.83;15.65;;;;;;;;;;5022610;28;20042;-89
2021/12/18 13:03:36;;;;;;;36.60;15.15;;;;;;;;;;5022779;28;20567;-90
2021/12/18 13:06:12;;;;;;;36.60;14.93;;;;;;;;;;5022292;28;20141;-90
2021/12/18 13:08:41;;;;;;;26.30;12.10;;;;;;;;;;5009557;28;20292;-89
2021/12/18 13:11:11;;;;;;;32.72;13.82;;;;;;;;;;5022041;28;20633;-89
2021/12/18 13:13:39;;;;;;;36.58;16.00;;;;;;;;;;5025984;28;20733;-89
2021/12/18 13:16:10;;;;;;;35.38;16.08;;;;;;;;;;5022312;28;20453;-89
2021/12/18 13:18:39;;;;;;;40.40;16.80;;;;;;;;;;5009470;28;20125;-90
2021/12/18 13:21:16;;;;;;;39.97;16.92;;;;;;;;;;5020194;28;20123;-90
2021/12/18 13:23:49;;;;;;;36.45;16.92;;;;;;;;;;5022565;28;20141;-89
2021/12/18 13:26:19;;;;;;;35.70;15.85;;;;;;;;;;5005693;28;20045;-90
2021/12/18 13:28:56;;;;;;;40.20;17.52;;;;;;;;;;4984507;28;20409;-90
2021/12/18 13:31:34;;;;;;;44.65;18.58;;;;;;;;;;5011233;28;20042;-89
2021/12/18 13:34:05;;;;;;;45.83;20.02;;;;;;;;;;5017283;28;20037;-87
2021/12/18 13:36:49;;;;;;;42.33;17.58;;;;;;;;;;5017192;28;20609;-89
2021/12/18 13:39:20;;;;;;;42.40;18.70;;;;;;;;;;5010512;28;20041;-89
2021/12/18 13:42:05;;;;;;;42.38;17.75;;;;;;;;;;4992688;28;21355;-89
2021/12/18 13:44:41;;;;;;;46.83;19.05;;;;;;;;;;5004177;28;20053;-89
2021/12/18 13:47:17;;;;;;;47.40;18.95;;;;;;;;;;5008985;28;20054;-90
2021/12/18 13:49:45;;;;;;;48.15;19.67;;;;;;;;;;4993161;28;20043;-90
2021/12/18 13:52:32;;;;;;;47.63;20.15;;;;;;;;;;4976946;28;20052;-91
2021/12/18 13:55:00;;;;;;;43.10;17.63;;;;;;;;;;5004621;28;20053;-90
2021/12/18 13:57:28;;;;;;;43.10;17.73;;;;;;;;;;5009271;28;20125;-91
2021/12/18 14:00:09;;;;;;;46.00;19.02;;;;;;;;;;5007437;28;20692;-91
2021/12/18 14:02:37;;;;;;;43.67;18.95;;;;;;;;;;5006656;28;20052;-91
2021/12/18 14:05:13;;;;;;;42.00;18.50;;;;;;;;;;4973344;28;20425;-90
2021/12/18 14:07:52;;;;;;;56.63;24.38;;;;;;;;;;5008470;28;20050;-92
2021/12/18 14:10:22;;;;;;;57.17;22.90;;;;;;;;;;4977057;28;20494;-91
2021/12/18 14:12:54;;;;;;;48.88;19.58;;;;;;;;;;4992420;28;20133;-92
2021/12/18 14:15:22;;;;;;;43.45;18.35;;;;;;;;;;5008048;28;20062;-91
2021/12/18 14:17:49;;;;;;;40.13;17.35;;;;;;;;;;4993702;28;20061;-91
2021/12/18 14:20:19;;;;;;;41.38;17.02;;;;;;;;;;5011056;28;20778;-90
2021/12/18 14:22:50;;;;;;;40.00;18.08;;;;;;;;;;5008651;28;20049;-90
2021/12/18 14:25:19;;;;;;;47.00;22.17;;;;;;;;;;4997036;28;20060;-90
2021/12/18 14:27:55;;;;;;;45.97;20.75;;;;;;;;;;4976083;28;20868;-90
2021/12/18 14:30:30;;;;;;;51.63;23.27;;;;;;;;;;5005886;28;20056;-91
2021/12/18 14:33:14;;;;;;;38.92;17.45;;;;;;;;;;5024526;28;20042;-90
2021/12/18 14:35:49;;;;;;;41.28;15.95;;;;;;;;;;5022101;28;20049;-89
2021/12/18 14:38:29;;;;;;;35.30;15.50;;;;;;;;;;5004577;28;20046;-89
2021/12/18 14:40:59;;;;;;;35.60;15.63;;;;;;;;;;5024036;28;20583;-90
2021/12/18 14:43:27;;;;;;;37.08;16.33;;;;;;;;;;5025112;28;20429;-90
2021/12/18 14:45:54;;;;;;;38.78;15.13;;;;;;;;;;4991788;28;20776;-89
2021/12/18 14:48:35;;;;;;;41.50;16.88;;;;;;;;;;5009576;28;20775;-90
2021/12/18 14:51:02;;;;;;;33.67;15.15;;;;;;;;;;5005561;28;20128;-90
2021/12/18 14:53:34;;;;;;;35.58;14.70;;;;;;;;;;5025283;28;20697;-89
2021/12/18 14:56:02;;;;;;;32.30;14.45;;;;;;;;;;5010306;28;20049;-90
2021/12/18 14:58:33;;;;;;;38.42;17.02;;;;;;;;;;5006347;28;20077;-89
2021/12/18 15:01:04;;;;;;;35.90;15.73;;;;;;;;;;5010074;28;20042;-90
2021/12/18 15:03:40;;;;;;;37.08;16.80;;;;;;;;;;5007567;28;20139;-89
2021/12/18 15:06:09;;;;;;;43.67;19.52;;;;;;;;;;5009109;28;20060;-90
2021/12/18 15:08:49;;;;;;;48.85;21.20;;;;;;;;;;5007700;28;20045;-89
2021/12/18 15:11:37;;;;;;;41.25;16.10;;;;;;;;;;4991269;28;20048;-89
2021/12/18 15:14:18;;;;;;;48.03;19.27;;;;;;;;;;5025042;28;20132;-89
2021/12/18 15:16:46;;;;;;;43.38;17.27;;;;;;;;;;4992014;28;20049;-89
2021/12/18 15:19:17;;;;;;;46.20;18.08;;;;;;;;;;4980839;28;20113;-91
2021/12/18 15:21:47;;;;;;;43.97;17.95;;;;;;;;;;4997151;28;20045;-90